Terminal Aerodrome Forecast
Issued by NWS Wilmington, OH

Current Version | Previous Version | Graphics & Text | Print | Product List | Glossary On
Versions: 1 2 3 4 5 6 7 8 9 10 11 12 13
000
FTUS41 KILN 091700
TAFILN
TAF
KILN 091726Z 0918/1018 26012KT P6SM SCT050
     FM092100 28012KT P6SM VCSH BKN040
     FM092300 31006KT P6SM SCT040
     FM100300 36004KT P6SM SKC
      TEMPO 1009/1012 5SM BR
     FM101500 01008KT P6SM SKC=

USA.gov is the U.S. government's official web portal to all federal, state and local government web resources and services.